sensor_id;sensor_type;location;lat;lon;timestamp;P1;durP1;ratioP1;P2;durP2;ratioP2
15633;SDS011;14654;48.898;8.308;2023-07-09T00:02:11;5.30;;;4.80;;
15633;SDS011;14654;48.898;8.308;2023-07-09T00:04:37;5.83;;;4.73;;
15633;SDS011;14654;48.898;8.308;2023-07-09T00:07:03;6.00;;;5.00;;
15633;SDS011;14654;48.898;8.308;2023-07-09T00:09:29;5.13;;;4.60;;
15633;SDS011;14654;48.898;8.308;2023-07-09T00:11:55;5.83;;;5.23;;
15633;SDS011;14654;48.898;8.308;2023-07-09T00:14:21;5.07;;;4.57;;
15633;SDS011;14654;48.898;8.308;2023-07-09T00:16:46;5.23;;;4.80;;
15633;SDS011;14654;48.898;8.308;2023-07-09T00:19:14;5.93;;;4.83;;
15633;SDS011;14654;48.898;8.308;2023-07-09T00:21:42;4.70;;;4.30;;
15633;SDS011;14654;48.898;8.308;2023-07-09T00:24:10;5.17;;;4.67;;
15633;SDS011;14654;48.898;8.308;2023-07-09T00:26:37;4.70;;;4.03;;
15633;SDS011;14654;48.898;8.308;2023-07-09T00:29:03;4.67;;;4.27;;
15633;SDS011;14654;48.898;8.308;2023-07-09T00:31:29;4.80;;;4.40;;
15633;SDS011;14654;48.898;8.308;2023-07-09T00:33:54;5.47;;;4.17;;
15633;SDS011;14654;48.898;8.308;2023-07-09T00:36:28;5.40;;;4.90;;
15633;SDS011;14654;48.898;8.308;2023-07-09T00:38:57;6.80;;;4.87;;
15633;SDS011;14654;48.898;8.308;2023-07-09T00:41:24;5.77;;;5.17;;
15633;SDS011;14654;48.898;8.308;2023-07-09T00:43:50;5.47;;;4.87;;
15633;SDS011;14654;48.898;8.308;2023-07-09T00:48:45;5.33;;;4.83;;
15633;SDS011;14654;48.898;8.308;2023-07-09T00:51:18;5.70;;;5.20;;
15633;SDS011;14654;48.898;8.308;2023-07-09T00:53:46;5.23;;;4.73;;
15633;SDS011;14654;48.898;8.308;2023-07-09T00:56:17;5.23;;;4.73;;
15633;SDS011;14654;48.898;8.308;2023-07-09T00:58:52;5.27;;;4.77;;
15633;SDS011;14654;48.898;8.308;2023-07-09T01:01:20;5.00;;;4.60;;
15633;SDS011;14654;48.898;8.308;2023-07-09T01:03:51;5.33;;;4.90;;
15633;SDS011;14654;48.898;8.308;2023-07-09T01:06:27;5.37;;;4.50;;
15633;SDS011;14654;48.898;8.308;2023-07-09T01:08:57;5.33;;;4.83;;
15633;SDS011;14654;48.898;8.308;2023-07-09T01:11:24;5.07;;;4.60;;
15633;SDS011;14654;48.898;8.308;2023-07-09T01:13:54;5.20;;;4.60;;
15633;SDS011;14654;48.898;8.308;2023-07-09T01:16:22;4.87;;;4.43;;
15633;SDS011;14654;48.898;8.308;2023-07-09T01:18:50;6.30;;;5.13;;
15633;SDS011;14654;48.898;8.308;2023-07-09T01:21:16;6.43;;;5.40;;
15633;SDS011;14654;48.898;8.308;2023-07-09T01:23:46;5.07;;;4.60;;
15633;SDS011;14654;48.898;8.308;2023-07-09T01:26:17;5.90;;;4.93;;
15633;SDS011;14654;48.898;8.308;2023-07-09T01:28:44;5.63;;;4.87;;
15633;SDS011;14654;48.898;8.308;2023-07-09T01:31:10;5.43;;;4.80;;
15633;SDS011;14654;48.898;8.308;2023-07-09T01:33:38;5.10;;;4.60;;
15633;SDS011;14654;48.898;8.308;2023-07-09T01:36:04;6.10;;;5.47;;
15633;SDS011;14654;48.898;8.308;2023-07-09T01:38:33;5.97;;;5.47;;
15633;SDS011;14654;48.898;8.308;2023-07-09T01:40:58;5.30;;;4.80;;
15633;SDS011;14654;48.898;8.308;2023-07-09T01:43:24;5.60;;;5.00;;
15633;SDS011;14654;48.898;8.308;2023-07-09T01:45:51;5.43;;;4.93;;
15633;SDS011;14654;48.898;8.308;2023-07-09T01:48:17;4.90;;;4.50;;
15633;SDS011;14654;48.898;8.308;2023-07-09T01:50:45;5.13;;;4.70;;
15633;SDS011;14654;48.898;8.308;2023-07-09T01:53:14;4.80;;;4.40;;
15633;SDS011;14654;48.898;8.308;2023-07-09T01:55:41;5.17;;;4.77;;
15633;SDS011;14654;48.898;8.308;2023-07-09T01:58:07;5.20;;;4.80;;
15633;SDS011;14654;48.898;8.308;2023-07-09T02:00:33;5.70;;;4.83;;
15633;SDS011;14654;48.898;8.308;2023-07-09T02:03:02;5.00;;;4.60;;
15633;SDS011;14654;48.898;8.308;2023-07-09T02:05:30;4.97;;;4.37;;
15633;SDS011;14654;48.898;8.308;2023-07-09T02:07:57;5.40;;;4.90;;
15633;SDS011;14654;48.898;8.308;2023-07-09T02:10:23;5.67;;;5.17;;
15633;SDS011;14654;48.898;8.308;2023-07-09T02:12:48;5.27;;;4.77;;
15633;SDS011;14654;48.898;8.308;2023-07-09T02:15:14;6.07;;;5.00;;
15633;SDS011;14654;48.898;8.308;2023-07-09T02:17:40;5.80;;;5.20;;
15633;SDS011;14654;48.898;8.308;2023-07-09T02:20:06;5.47;;;5.07;;
15633;SDS011;14654;48.898;8.308;2023-07-09T02:22:36;6.33;;;5.67;;
15633;SDS011;14654;48.898;8.308;2023-07-09T02:25:03;5.50;;;5.00;;
15633;SDS011;14654;48.898;8.308;2023-07-09T02:27:28;5.50;;;5.00;;
15633;SDS011;14654;48.898;8.308;2023-07-09T02:29:54;6.07;;;5.47;;
15633;SDS011;14654;48.898;8.308;2023-07-09T02:32:24;5.57;;;4.80;;
15633;SDS011;14654;48.898;8.308;2023-07-09T02:34:53;5.23;;;4.80;;
15633;SDS011;14654;48.898;8.308;2023-07-09T02:37:20;5.80;;;5.20;;
15633;SDS011;14654;48.898;8.308;2023-07-09T02:39:48;5.67;;;5.13;;
15633;SDS011;14654;48.898;8.308;2023-07-09T02:42:14;5.07;;;4.53;;
15633;SDS011;14654;48.898;8.308;2023-07-09T02:44:40;5.67;;;5.10;;
15633;SDS011;14654;48.898;8.308;2023-07-09T02:47:07;5.63;;;5.03;;
15633;SDS011;14654;48.898;8.308;2023-07-09T02:49:33;5.40;;;4.90;;
15633;SDS011;14654;48.898;8.308;2023-07-09T02:51:58;5.53;;;5.03;;
15633;SDS011;14654;48.898;8.308;2023-07-09T02:54:24;5.73;;;5.23;;
15633;SDS011;14654;48.898;8.308;2023-07-09T02:56:49;6.13;;;4.97;;
15633;SDS011;14654;48.898;8.308;2023-07-09T02:59:14;5.53;;;5.03;;
15633;SDS011;14654;48.898;8.308;2023-07-09T03:01:40;7.70;;;4.80;;
15633;SDS011;14654;48.898;8.308;2023-07-09T03:04:05;5.20;;;4.70;;
15633;SDS011;14654;48.898;8.308;2023-07-09T03:06:31;5.60;;;5.10;;
15633;SDS011;14654;48.898;8.308;2023-07-09T03:08:58;5.20;;;4.73;;
15633;SDS011;14654;48.898;8.308;2023-07-09T03:11:24;5.27;;;4.77;;
15633;SDS011;14654;48.898;8.308;2023-07-09T03:13:50;5.60;;;5.10;;
15633;SDS011;14654;48.898;8.308;2023-07-09T03:16:16;5.43;;;4.93;;
15633;SDS011;14654;48.898;8.308;2023-07-09T03:18:43;5.27;;;4.53;;
15633;SDS011;14654;48.898;8.308;2023-07-09T03:21:09;6.03;;;5.00;;
15633;SDS011;14654;48.898;8.308;2023-07-09T03:23:34;5.93;;;5.30;;
15633;SDS011;14654;48.898;8.308;2023-07-09T03:25:59;5.83;;;5.33;;
15633;SDS011;14654;48.898;8.308;2023-07-09T03:28:25;5.67;;;4.93;;
15633;SDS011;14654;48.898;8.308;2023-07-09T03:30:52;4.93;;;4.47;;
15633;SDS011;14654;48.898;8.308;2023-07-09T03:33:19;5.67;;;5.17;;
15633;SDS011;14654;48.898;8.308;2023-07-09T03:35:45;5.67;;;5.10;;
15633;SDS011;14654;48.898;8.308;2023-07-09T03:38:11;6.97;;;5.43;;
15633;SDS011;14654;48.898;8.308;2023-07-09T03:40:36;5.93;;;5.43;;
15633;SDS011;14654;48.898;8.308;2023-07-09T03:43:03;5.53;;;5.00;;
15633;SDS011;14654;48.898;8.308;2023-07-09T03:45:31;5.37;;;4.87;;
15633;SDS011;14654;48.898;8.308;2023-07-09T03:47:58;5.27;;;4.87;;
15633;SDS011;14654;48.898;8.308;2023-07-09T03:50:23;5.50;;;5.00;;
15633;SDS011;14654;48.898;8.308;2023-07-09T03:52:48;5.70;;;5.10;;
15633;SDS011;14654;48.898;8.308;2023-07-09T03:55:14;5.83;;;5.33;;
15633;SDS011;14654;48.898;8.308;2023-07-09T03:57:39;5.53;;;5.03;;
15633;SDS011;14654;48.898;8.308;2023-07-09T04:00:05;6.27;;;5.67;;
15633;SDS011;14654;48.898;8.308;2023-07-09T04:02:35;6.17;;;5.57;;
15633;SDS011;14654;48.898;8.308;2023-07-09T04:05:00;7.17;;;5.53;;
15633;SDS011;14654;48.898;8.308;2023-07-09T04:07:25;5.10;;;4.60;;
15633;SDS011;14654;48.898;8.308;2023-07-09T04:09:51;5.80;;;5.30;;
15633;SDS011;14654;48.898;8.308;2023-07-09T04:12:16;5.60;;;5.10;;
15633;SDS011;14654;48.898;8.308;2023-07-09T04:14:41;5.73;;;5.23;;
15633;SDS011;14654;48.898;8.308;2023-07-09T04:17:07;6.27;;;5.13;;
15633;SDS011;14654;48.898;8.308;2023-07-09T04:19:32;5.60;;;5.10;;
15633;SDS011;14654;48.898;8.308;2023-07-09T04:21:57;5.40;;;4.93;;
15633;SDS011;14654;48.898;8.308;2023-07-09T04:24:23;5.10;;;4.60;;
15633;SDS011;14654;48.898;8.308;2023-07-09T04:26:48;6.00;;;5.40;;
15633;SDS011;14654;48.898;8.308;2023-07-09T04:29:14;7.10;;;6.17;;
15633;SDS011;14654;48.898;8.308;2023-07-09T04:31:40;6.50;;;5.90;;
15633;SDS011;14654;48.898;8.308;2023-07-09T04:34:06;7.60;;;5.80;;
15633;SDS011;14654;48.898;8.308;2023-07-09T04:36:32;5.77;;;4.80;;
15633;SDS011;14654;48.898;8.308;2023-07-09T04:38:57;5.57;;;5.03;;
15633;SDS011;14654;48.898;8.308;2023-07-09T04:41:23;4.67;;;4.27;;
15633;SDS011;14654;48.898;8.308;2023-07-09T04:43:49;6.43;;;4.90;;
15633;SDS011;14654;48.898;8.308;2023-07-09T04:46:14;4.90;;;4.50;;
15633;SDS011;14654;48.898;8.308;2023-07-09T04:48:39;4.60;;;4.17;;
15633;SDS011;14654;48.898;8.308;2023-07-09T04:51:05;4.70;;;4.20;;
15633;SDS011;14654;48.898;8.308;2023-07-09T04:53:30;5.53;;;5.00;;
15633;SDS011;14654;48.898;8.308;2023-07-09T04:55:55;4.87;;;4.37;;
15633;SDS011;14654;48.898;8.308;2023-07-09T04:58:21;5.33;;;4.50;;
15633;SDS011;14654;48.898;8.308;2023-07-09T05:00:46;5.47;;;4.43;;
15633;SDS011;14654;48.898;8.308;2023-07-09T05:03:12;4.23;;;3.83;;
15633;SDS011;14654;48.898;8.308;2023-07-09T05:05:43;4.73;;;4.33;;
15633;SDS011;14654;48.898;8.308;2023-07-09T05:08:09;4.63;;;3.97;;
15633;SDS011;14654;48.898;8.308;2023-07-09T05:10:40;4.17;;;3.87;;
15633;SDS011;14654;48.898;8.308;2023-07-09T05:13:06;4.90;;;4.23;;
15633;SDS011;14654;48.898;8.308;2023-07-09T05:15:32;4.47;;;4.03;;
15633;SDS011;14654;48.898;8.308;2023-07-09T05:17:57;4.63;;;3.85;;
15633;SDS011;14654;48.898;8.308;2023-07-09T05:20:22;4.63;;;4.20;;
15633;SDS011;14654;48.898;8.308;2023-07-09T05:22:48;4.35;;;3.95;;
15633;SDS011;14654;48.898;8.308;2023-07-09T05:25:13;4.30;;;3.90;;
15633;SDS011;14654;48.898;8.308;2023-07-09T05:27:38;4.45;;;4.05;;
15633;SDS011;14654;48.898;8.308;2023-07-09T05:30:04;5.05;;;3.92;;
15633;SDS011;14654;48.898;8.308;2023-07-09T05:32:30;4.40;;;4.05;;
15633;SDS011;14654;48.898;8.308;2023-07-09T05:34:56;5.82;;;4.32;;
15633;SDS011;14654;48.898;8.308;2023-07-09T05:37:21;5.45;;;4.20;;
15633;SDS011;14654;48.898;8.308;2023-07-09T05:39:46;4.80;;;4.20;;
15633;SDS011;14654;48.898;8.308;2023-07-09T05:42:12;5.00;;;4.22;;
15633;SDS011;14654;48.898;8.308;2023-07-09T05:44:37;4.85;;;3.50;;
15633;SDS011;14654;48.898;8.308;2023-07-09T05:47:02;3.72;;;3.35;;
15633;SDS011;14654;48.898;8.308;2023-07-09T05:49:28;5.03;;;4.53;;
15633;SDS011;14654;48.898;8.308;2023-07-09T05:51:53;4.85;;;4.18;;
15633;SDS011;14654;48.898;8.308;2023-07-09T05:54:18;4.30;;;3.90;;
15633;SDS011;14654;48.898;8.308;2023-07-09T05:56:44;5.22;;;4.45;;
15633;SDS011;14654;48.898;8.308;2023-07-09T05:59:09;4.90;;;4.35;;
15633;SDS011;14654;48.898;8.308;2023-07-09T06:01:35;4.97;;;4.47;;
15633;SDS011;14654;48.898;8.308;2023-07-09T06:04:00;4.43;;;4.03;;
15633;SDS011;14654;48.898;8.308;2023-07-09T06:06:25;5.55;;;4.97;;
15633;SDS011;14654;48.898;8.308;2023-07-09T06:08:52;5.78;;;4.82;;
15633;SDS011;14654;48.898;8.308;2023-07-09T06:11:18;5.28;;;4.78;;
15633;SDS011;14654;48.898;8.308;2023-07-09T06:13:44;5.15;;;4.57;;
15633;SDS011;14654;48.898;8.308;2023-07-09T06:16:09;6.38;;;4.47;;
15633;SDS011;14654;48.898;8.308;2023-07-09T06:18:34;5.85;;;4.72;;
15633;SDS011;14654;48.898;8.308;2023-07-09T06:21:00;6.38;;;4.85;;
15633;SDS011;14654;48.898;8.308;2023-07-09T06:23:28;7.50;;;5.18;;
15633;SDS011;14654;48.898;8.308;2023-07-09T06:25:54;7.60;;;5.32;;
15633;SDS011;14654;48.898;8.308;2023-07-09T06:28:21;5.22;;;4.70;;
15633;SDS011;14654;48.898;8.308;2023-07-09T06:30:48;5.68;;;4.90;;
15633;SDS011;14654;48.898;8.308;2023-07-09T06:33:14;5.25;;;4.75;;
15633;SDS011;14654;48.898;8.308;2023-07-09T06:35:50;5.40;;;4.90;;
15633;SDS011;14654;48.898;8.308;2023-07-09T06:38:17;6.45;;;5.10;;
15633;SDS011;14654;48.898;8.308;2023-07-09T06:40:43;6.60;;;4.82;;
15633;SDS011;14654;48.898;8.308;2023-07-09T06:43:09;5.10;;;4.68;;
15633;SDS011;14654;48.898;8.308;2023-07-09T06:45:34;4.82;;;4.13;;
15633;SDS011;14654;48.898;8.308;2023-07-09T06:48:00;5.63;;;5.13;;
15633;SDS011;14654;48.898;8.308;2023-07-09T06:50:26;6.50;;;4.95;;
15633;SDS011;14654;48.898;8.308;2023-07-09T06:52:51;6.53;;;4.68;;
15633;SDS011;14654;48.898;8.308;2023-07-09T06:55:17;4.80;;;4.40;;
15633;SDS011;14654;48.898;8.308;2023-07-09T06:57:42;4.90;;;4.13;;
15633;SDS011;14654;48.898;8.308;2023-07-09T07:00:08;7.43;;;5.32;;
15633;SDS011;14654;48.898;8.308;2023-07-09T07:02:33;4.68;;;4.15;;
15633;SDS011;14654;48.898;8.308;2023-07-09T07:04:59;8.45;;;4.90;;
15633;SDS011;14654;48.898;8.308;2023-07-09T07:07:24;6.20;;;4.90;;
15633;SDS011;14654;48.898;8.308;2023-07-09T07:09:49;5.20;;;4.70;;
15633;SDS011;14654;48.898;8.308;2023-07-09T07:12:25;5.78;;;5.20;;
15633;SDS011;14654;48.898;8.308;2023-07-09T07:14:53;7.72;;;4.53;;
15633;SDS011;14654;48.898;8.308;2023-07-09T07:17:18;5.15;;;4.68;;
15633;SDS011;14654;48.898;8.308;2023-07-09T07:19:44;5.30;;;4.72;;
15633;SDS011;14654;48.898;8.308;2023-07-09T07:22:10;5.93;;;5.32;;
15633;SDS011;14654;48.898;8.308;2023-07-09T07:24:35;4.82;;;4.38;;
15633;SDS011;14654;48.898;8.308;2023-07-09T07:27:00;5.18;;;4.60;;
15633;SDS011;14654;48.898;8.308;2023-07-09T07:29:26;6.15;;;4.43;;
15633;SDS011;14654;48.898;8.308;2023-07-09T07:31:51;5.75;;;4.90;;
15633;SDS011;14654;48.898;8.308;2023-07-09T07:34:18;5.20;;;4.80;;
15633;SDS011;14654;48.898;8.308;2023-07-09T07:36:43;6.10;;;4.88;;
15633;SDS011;14654;48.898;8.308;2023-07-09T07:39:09;6.10;;;5.18;;
15633;SDS011;14654;48.898;8.308;2023-07-09T07:41:34;6.22;;;4.90;;
15633;SDS011;14654;48.898;8.308;2023-07-09T07:43:59;5.95;;;4.70;;
15633;SDS011;14654;48.898;8.308;2023-07-09T07:46:25;5.95;;;4.85;;
15633;SDS011;14654;48.898;8.308;2023-07-09T07:48:50;5.70;;;4.97;;
15633;SDS011;14654;48.898;8.308;2023-07-09T07:51:15;6.65;;;5.15;;
15633;SDS011;14654;48.898;8.308;2023-07-09T07:53:41;5.85;;;5.28;;
15633;SDS011;14654;48.898;8.308;2023-07-09T07:56:06;5.28;;;4.88;;
15633;SDS011;14654;48.898;8.308;2023-07-09T07:58:32;5.95;;;4.60;;
15633;SDS011;14654;48.898;8.308;2023-07-09T08:00:57;5.85;;;4.65;;
15633;SDS011;14654;48.898;8.308;2023-07-09T08:03:23;5.18;;;4.60;;
15633;SDS011;14654;48.898;8.308;2023-07-09T08:05:49;5.72;;;5.22;;
15633;SDS011;14654;48.898;8.308;2023-07-09T08:08:15;5.72;;;4.88;;
15633;SDS011;14654;48.898;8.308;2023-07-09T08:10:41;4.72;;;4.22;;
15633;SDS011;14654;48.898;8.308;2023-07-09T08:13:06;7.80;;;5.00;;
15633;SDS011;14654;48.898;8.308;2023-07-09T08:15:32;5.68;;;4.90;;
15633;SDS011;14654;48.898;8.308;2023-07-09T08:17:57;6.43;;;5.38;;
15633;SDS011;14654;48.898;8.308;2023-07-09T08:20:23;6.57;;;4.68;;
15633;SDS011;14654;48.898;8.308;2023-07-09T08:22:48;7.63;;;5.32;;
15633;SDS011;14654;48.898;8.308;2023-07-09T08:25:13;5.28;;;4.72;;
15633;SDS011;14654;48.898;8.308;2023-07-09T08:27:39;5.95;;;4.63;;
15633;SDS011;14654;48.898;8.308;2023-07-09T08:30:05;5.63;;;5.07;;
15633;SDS011;14654;48.898;8.308;2023-07-09T08:32:31;4.80;;;4.35;;
15633;SDS011;14654;48.898;8.308;2023-07-09T08:34:56;5.97;;;5.38;;
15633;SDS011;14654;48.898;8.308;2023-07-09T08:37:21;5.70;;;5.10;;
15633;SDS011;14654;48.898;8.308;2023-07-09T08:39:47;5.55;;;4.55;;
15633;SDS011;14654;48.898;8.308;2023-07-09T08:42:17;6.15;;;5.40;;
15633;SDS011;14654;48.898;8.308;2023-07-09T08:50:57;4.63;;;4.22;;
15633;SDS011;14654;48.898;8.308;2023-07-09T08:56:21;5.55;;;4.97;;
15633;SDS011;14654;48.898;8.308;2023-07-09T08:58:47;6.07;;;5.53;;
15633;SDS011;14654;48.898;8.308;2023-07-09T09:01:23;5.32;;;4.93;;
15633;SDS011;14654;48.898;8.308;2023-07-09T09:03:53;6.93;;;4.95;;
15633;SDS011;14654;48.898;8.308;2023-07-09T09:06:27;5.93;;;4.93;;
15633;SDS011;14654;48.898;8.308;2023-07-09T09:14:01;5.47;;;4.97;;
15633;SDS011;14654;48.898;8.308;2023-07-09T09:16:32;5.43;;;4.88;;
15633;SDS011;14654;48.898;8.308;2023-07-09T09:19:00;5.82;;;5.00;;
15633;SDS011;14654;48.898;8.308;2023-07-09T09:21:35;5.93;;;5.03;;
15633;SDS011;14654;48.898;8.308;2023-07-09T09:24:14;6.57;;;5.50;;
15633;SDS011;14654;48.898;8.308;2023-07-09T09:26:44;6.38;;;4.90;;
15633;SDS011;14654;48.898;8.308;2023-07-09T09:29:10;8.43;;;5.60;;
15633;SDS011;14654;48.898;8.308;2023-07-09T09:31:37;5.53;;;5.03;;
15633;SDS011;14654;48.898;8.308;2023-07-09T09:34:03;6.45;;;5.20;;
15633;SDS011;14654;48.898;8.308;2023-07-09T09:36:30;5.38;;;4.88;;
15633;SDS011;14654;48.898;8.308;2023-07-09T09:38:55;5.07;;;4.68;;
15633;SDS011;14654;48.898;8.308;2023-07-09T09:41:25;5.55;;;5.03;;
15633;SDS011;14654;48.898;8.308;2023-07-09T09:43:55;6.40;;;5.18;;
15633;SDS011;14654;48.898;8.308;2023-07-09T09:46:25;5.57;;;4.82;;
15633;SDS011;14654;48.898;8.308;2023-07-09T09:48:55;5.18;;;4.65;;
15633;SDS011;14654;48.898;8.308;2023-07-09T09:51:24;4.45;;;4.05;;
15633;SDS011;14654;48.898;8.308;2023-07-09T09:54:11;8.13;;;4.70;;
15633;SDS011;14654;48.898;8.308;2023-07-09T09:56:49;7.20;;;5.32;;
15633;SDS011;14654;48.898;8.308;2023-07-09T09:59:18;5.25;;;4.50;;
15633;SDS011;14654;48.898;8.308;2023-07-09T10:02:01;6.15;;;4.88;;
15633;SDS011;14654;48.898;8.308;2023-07-09T10:04:37;6.50;;;5.18;;
15633;SDS011;14654;48.898;8.308;2023-07-09T10:07:04;6.60;;;5.18;;
15633;SDS011;14654;48.898;8.308;2023-07-09T10:22:39;5.40;;;4.85;;
15633;SDS011;14654;48.898;8.308;2023-07-09T10:36:21;4.95;;;4.55;;
15633;SDS011;14654;48.898;8.308;2023-07-09T10:39:08;6.25;;;4.68;;
15633;SDS011;14654;48.898;8.308;2023-07-09T10:41:37;5.63;;;5.05;;
15633;SDS011;14654;48.898;8.308;2023-07-09T10:44:10;6.05;;;5.15;;
15633;SDS011;14654;48.898;8.308;2023-07-09T10:46:43;5.38;;;4.88;;
15633;SDS011;14654;48.898;8.308;2023-07-09T10:49:14;6.03;;;4.95;;
15633;SDS011;14654;48.898;8.308;2023-07-09T10:51:43;5.65;;;4.60;;
15633;SDS011;14654;48.898;8.308;2023-07-09T10:54:15;5.32;;;4.45;;
15633;SDS011;14654;48.898;8.308;2023-07-09T10:56:43;5.47;;;4.97;;
15633;SDS011;14654;48.898;8.308;2023-07-09T10:59:22;8.40;;;4.70;;
15633;SDS011;14654;48.898;8.308;2023-07-09T11:02:35;5.53;;;5.03;;
15633;SDS011;14654;48.898;8.308;2023-07-09T11:05:05;5.20;;;4.53;;
15633;SDS011;14654;48.898;8.308;2023-07-09T11:10:05;5.10;;;4.15;;
15633;SDS011;14654;48.898;8.308;2023-07-09T11:12:40;5.00;;;4.18;;
15633;SDS011;14654;48.898;8.308;2023-07-09T11:15:13;5.63;;;4.70;;
15633;SDS011;14654;48.898;8.308;2023-07-09T11:17:44;5.07;;;4.57;;
15633;SDS011;14654;48.898;8.308;2023-07-09T11:20:33;7.20;;;5.10;;
15633;SDS011;14654;48.898;8.308;2023-07-09T11:23:04;5.72;;;4.63;;
15633;SDS011;14654;48.898;8.308;2023-07-09T11:28:08;4.78;;;4.38;;
15633;SDS011;14654;48.898;8.308;2023-07-09T11:30:44;7.50;;;5.10;;
15633;SDS011;14654;48.898;8.308;2023-07-09T11:33:17;5.20;;;4.75;;
15633;SDS011;14654;48.898;8.308;2023-07-09T11:36:11;5.30;;;4.43;;
15633;SDS011;14654;48.898;8.308;2023-07-09T11:38:45;5.72;;;4.82;;
15633;SDS011;14654;48.898;8.308;2023-07-09T11:46:57;4.80;;;4.35;;
15633;SDS011;14654;48.898;8.308;2023-07-09T11:49:34;5.22;;;4.72;;
15633;SDS011;14654;48.898;8.308;2023-07-09T11:52:26;4.82;;;4.30;;
15633;SDS011;14654;48.898;8.308;2023-07-09T11:54:56;4.43;;;4.03;;
15633;SDS011;14654;48.898;8.308;2023-07-09T11:57:22;4.95;;;4.55;;
15633;SDS011;14654;48.898;8.308;2023-07-09T11:59:47;4.80;;;4.03;;
15633;SDS011;14654;48.898;8.308;2023-07-09T12:02:21;4.90;;;4.40;;
15633;SDS011;14654;48.898;8.308;2023-07-09T12:04:47;4.80;;;4.40;;
15633;SDS011;14654;48.898;8.308;2023-07-09T12:07:15;5.43;;;4.18;;
15633;SDS011;14654;48.898;8.308;2023-07-09T12:09:43;4.90;;;4.40;;
15633;SDS011;14654;48.898;8.308;2023-07-09T12:12:18;4.40;;;3.95;;
15633;SDS011;14654;48.898;8.308;2023-07-09T12:14:46;4.47;;;4.00;;
15633;SDS011;14654;48.898;8.308;2023-07-09T12:17:11;4.70;;;4.30;;
15633;SDS011;14654;48.898;8.308;2023-07-09T12:19:36;4.20;;;3.80;;
15633;SDS011;14654;48.898;8.308;2023-07-09T12:22:06;6.80;;;4.15;;
15633;SDS011;14654;48.898;8.308;2023-07-09T12:24:39;10.45;;;4.43;;
15633;SDS011;14654;48.898;8.308;2023-07-09T12:27:24;5.25;;;4.50;;
15633;SDS011;14654;48.898;8.308;2023-07-09T12:29:54;7.20;;;4.90;;
15633;SDS011;14654;48.898;8.308;2023-07-09T12:32:21;4.53;;;3.80;;
15633;SDS011;14654;48.898;8.308;2023-07-09T12:34:51;4.75;;;4.03;;
15633;SDS011;14654;48.898;8.308;2023-07-09T12:37:18;4.80;;;4.15;;
15633;SDS011;14654;48.898;8.308;2023-07-09T12:39:47;5.65;;;3.72;;
15633;SDS011;14654;48.898;8.308;2023-07-09T12:42:17;7.25;;;4.35;;
15633;SDS011;14654;48.898;8.308;2023-07-09T12:44:45;6.40;;;3.95;;
15633;SDS011;14654;48.898;8.308;2023-07-09T12:47:14;4.38;;;3.97;;
15633;SDS011;14654;48.898;8.308;2023-07-09T12:49:41;4.65;;;4.13;;
15633;SDS011;14654;48.898;8.308;2023-07-09T12:52:18;5.95;;;4.47;;
15633;SDS011;14654;48.898;8.308;2023-07-09T12:54:56;6.18;;;3.85;;
15633;SDS011;14654;48.898;8.308;2023-07-09T12:57:22;4.38;;;3.92;;
15633;SDS011;14654;48.898;8.308;2023-07-09T12:59:48;5.30;;;4.15;;
15633;SDS011;14654;48.898;8.308;2023-07-09T13:04:45;4.50;;;3.70;;
15633;SDS011;14654;48.898;8.308;2023-07-09T13:09:52;4.47;;;3.70;;
15633;SDS011;14654;48.898;8.308;2023-07-09T13:12:29;3.90;;;3.60;;
15633;SDS011;14654;48.898;8.308;2023-07-09T13:14:56;4.93;;;4.38;;
15633;SDS011;14654;48.898;8.308;2023-07-09T13:17:22;4.65;;;4.20;;
15633;SDS011;14654;48.898;8.308;2023-07-09T13:19:48;5.75;;;4.65;;
15633;SDS011;14654;48.898;8.308;2023-07-09T13:22:15;4.57;;;4.15;;
15633;SDS011;14654;48.898;8.308;2023-07-09T13:24:45;4.30;;;3.90;;
15633;SDS011;14654;48.898;8.308;2023-07-09T13:27:12;4.80;;;4.25;;
15633;SDS011;14654;48.898;8.308;2023-07-09T13:29:39;5.55;;;4.00;;
15633;SDS011;14654;48.898;8.308;2023-07-09T13:32:11;4.13;;;3.83;;
15633;SDS011;14654;48.898;8.308;2023-07-09T13:34:40;5.07;;;4.30;;
15633;SDS011;14654;48.898;8.308;2023-07-09T13:37:09;4.45;;;3.80;;
15633;SDS011;14654;48.898;8.308;2023-07-09T13:39:37;4.78;;;3.97;;
15633;SDS011;14654;48.898;8.308;2023-07-09T13:42:03;4.35;;;3.92;;
15633;SDS011;14654;48.898;8.308;2023-07-09T13:44:30;4.63;;;4.13;;
15633;SDS011;14654;48.898;8.308;2023-07-09T13:46:55;3.85;;;3.47;;
15633;SDS011;14654;48.898;8.308;2023-07-09T13:49:22;7.85;;;4.03;;
15633;SDS011;14654;48.898;8.308;2023-07-09T13:51:51;4.10;;;3.75;;
15633;SDS011;14654;48.898;8.308;2023-07-09T13:54:20;5.65;;;3.70;;
15633;SDS011;14654;48.898;8.308;2023-07-09T13:56:48;4.80;;;4.28;;
15633;SDS011;14654;48.898;8.308;2023-07-09T13:59:19;4.50;;;4.10;;
15633;SDS011;14654;48.898;8.308;2023-07-09T14:01:46;4.25;;;3.78;;
15633;SDS011;14654;48.898;8.308;2023-07-09T14:04:14;4.05;;;3.53;;
15633;SDS011;14654;48.898;8.308;2023-07-09T14:06:42;4.75;;;4.30;;
15633;SDS011;14654;48.898;8.308;2023-07-09T14:09:08;5.75;;;4.32;;
15633;SDS011;14654;48.898;8.308;2023-07-09T14:11:36;5.22;;;3.88;;
15633;SDS011;14654;48.898;8.308;2023-07-09T14:14:16;5.10;;;4.45;;
15633;SDS011;14654;48.898;8.308;2023-07-09T14:16:43;4.80;;;3.95;;
15633;SDS011;14654;48.898;8.308;2023-07-09T14:19:12;4.38;;;3.97;;
15633;SDS011;14654;48.898;8.308;2023-07-09T14:21:42;5.53;;;4.03;;
15633;SDS011;14654;48.898;8.308;2023-07-09T14:24:17;4.97;;;3.92;;
15633;SDS011;14654;48.898;8.308;2023-07-09T14:26:43;4.25;;;3.85;;
15633;SDS011;14654;48.898;8.308;2023-07-09T14:29:10;4.45;;;4.00;;
15633;SDS011;14654;48.898;8.308;2023-07-09T14:31:38;4.38;;;3.72;;
15633;SDS011;14654;48.898;8.308;2023-07-09T14:36:47;4.55;;;4.15;;
15633;SDS011;14654;48.898;8.308;2023-07-09T14:39:13;4.45;;;4.07;;
15633;SDS011;14654;48.898;8.308;2023-07-09T14:41:39;5.00;;;4.32;;
15633;SDS011;14654;48.898;8.308;2023-07-09T14:44:14;3.72;;;3.40;;
15633;SDS011;14654;48.898;8.308;2023-07-09T14:46:54;4.05;;;3.65;;
15633;SDS011;14654;48.898;8.308;2023-07-09T14:49:20;4.35;;;3.95;;
15633;SDS011;14654;48.898;8.308;2023-07-09T14:51:46;3.72;;;3.50;;
15633;SDS011;14654;48.898;8.308;2023-07-09T14:54:26;3.80;;;3.42;;
15633;SDS011;14654;48.898;8.308;2023-07-09T14:56:54;4.43;;;3.90;;
15633;SDS011;14654;48.898;8.308;2023-07-09T14:59:21;4.47;;;4.07;;
15633;SDS011;14654;48.898;8.308;2023-07-09T15:01:46;4.55;;;3.78;;
15633;SDS011;14654;48.898;8.308;2023-07-09T15:06:51;4.30;;;3.90;;
15633;SDS011;14654;48.898;8.308;2023-07-09T15:09:22;4.15;;;3.83;;
15633;SDS011;14654;48.898;8.308;2023-07-09T15:11:50;4.63;;;4.25;;
15633;SDS011;14654;48.898;8.308;2023-07-09T15:14:17;4.82;;;4.25;;
15633;SDS011;14654;48.898;8.308;2023-07-09T15:16:42;4.10;;;3.65;;
15633;SDS011;14654;48.898;8.308;2023-07-09T15:19:11;4.68;;;4.25;;
15633;SDS011;14654;48.898;8.308;2023-07-09T15:21:38;4.15;;;3.75;;
15633;SDS011;14654;48.898;8.308;2023-07-09T15:24:04;5.28;;;4.35;;
15633;SDS011;14654;48.898;8.308;2023-07-09T15:26:30;4.82;;;3.95;;
15633;SDS011;14654;48.898;8.308;2023-07-09T15:28:57;4.70;;;4.10;;
15633;SDS011;14654;48.898;8.308;2023-07-09T15:31:22;4.60;;;4.15;;
15633;SDS011;14654;48.898;8.308;2023-07-09T15:33:48;4.82;;;4.32;;
15633;SDS011;14654;48.898;8.308;2023-07-09T15:36:13;4.45;;;4.00;;
15633;SDS011;14654;48.898;8.308;2023-07-09T15:38:39;4.43;;;4.03;;
15633;SDS011;14654;48.898;8.308;2023-07-09T15:41:10;4.30;;;3.90;;
15633;SDS011;14654;48.898;8.308;2023-07-09T15:43:37;4.00;;;3.70;;
15633;SDS011;14654;48.898;8.308;2023-07-09T15:46:03;4.38;;;3.70;;
15633;SDS011;14654;48.898;8.308;2023-07-09T15:48:33;4.88;;;4.00;;
15633;SDS011;14654;48.898;8.308;2023-07-09T15:51:01;4.47;;;4.07;;
15633;SDS011;14654;48.898;8.308;2023-07-09T15:53:28;4.40;;;4.00;;
15633;SDS011;14654;48.898;8.308;2023-07-09T15:55:57;4.40;;;4.00;;